HST,Max TemperatureF,Mean TemperatureF,Min TemperatureF,Max Dew PointF,MeanDew PointF,Min DewpointF,Max Humidity, Mean Humidity, Min Humidity, Max Sea Level PressureIn, Mean Sea Level PressureIn, Min Sea Level PressureIn, Max VisibilityMiles, Mean VisibilityMiles, Min VisibilityMiles, Max Wind SpeedMPH, Mean Wind SpeedMPH, Max Gust SpeedMPH,PrecipitationIn, CloudCover, Events, WindDirDegrees
2012-10-1,82,75,68,70,67,64,90,77,62,30.02,29.98,29.93,10,10,10,9,2,,0.00,3,,190
2012-10-2,81,74,68,72,68,64,90,78,62,30.03,29.97,29.93,10,10,10,8,3,,0.00,2,,140
2012-10-3,81,74,66,71,67,64,94,80,65,30.07,30.02,29.98,10,10,10,15,3,,0.00,2,Rain,134
2012-10-4,81,74,66,71,67,63,90,77,62,30.07,30.03,30.00,10,10,10,12,3,,0.00,2,,139
2012-10-5,79,72,64,70,67,63,93,80,66,30.04,29.99,29.93,10,10,10,10,3,,0.00,2,,185
2012-10-6,80,73,66,72,69,65,93,84,72,29.97,29.93,29.88,10,10,5,8,3,,0.02,2,Rain,215
2012-10-7,82,75,68,72,71,68,100,81,69,29.95,29.91,29.87,10,9,7,13,6,,0.00,2,Rain,219
2012-10-8,81,78,75,72,72,71,90,83,72,30.02,29.95,29.90,10,9,6,13,9,,0.00,3,,197
2012-10-9,81,74,68,72,70,67,100,85,71,30.10,30.04,29.98,10,8,3,9,5,,0.00,1,,181
2012-10-10,82,75,68,73,69,65,96,80,62,30.12,30.08,30.01,10,9,7,10,3,,0.00,2,,202
2012-10-11,84,78,72,72,69,66,93,75,55,30.13,30.08,29.99,10,10,10,9,3,18,0.00,3,,70
2012-10-12,84,75,66,68,66,64,93,70,51,30.17,30.12,30.05,10,10,10,9,4,,0.00,1,,86
2012-10-13,86,78,71,69,68,66,84,70,55,30.18,30.14,30.09,10,10,10,10,5,24,0.00,2,,60
2012-10-14,82,78,73,74,70,67,94,82,60,30.18,30.13,30.08,10,10,4,8,4,16,0.04,5,Rain,67
2012-10-15,84,78,71,70,67,62,94,73,48,30.13,30.07,29.99,10,10,9,13,3,23,0.00,5,,72
2012-10-16,82,76,69,70,67,64,93,76,62,30.05,30.01,29.97,10,10,10,13,3,20,0.00,1,,111
2012-10-17,82,74,66,70,66,63,88,74,60,30.02,29.98,29.92,10,10,10,12,2,20,0.00,1,,116
2012-10-18,84,76,69,69,66,64,84,72,51,30.06,30.01,29.94,10,10,10,15,3,23,0.00,4,,91
2012-10-19,84,76,69,67,63,59,87,66,44,30.06,30.02,29.97,10,10,10,9,3,17,0.00,1,,70
2012-10-20,84,77,70,69,66,64,87,70,51,30.03,29.99,29.94,10,10,10,14,5,21,0.00,2,,97
2012-10-21,84,76,68,67,64,62,84,66,47,30.02,29.99,29.95,10,10,10,15,5,22,0.00,2,,82
2012-10-22,84,78,71,69,65,61,81,68,49,30.04,29.99,29.93,10,10,10,13,5,22,0.00,3,,93
2012-10-23,82,76,71,70,67,63,82,73,63,30.01,29.97,29.91,10,10,10,15,2,,0.00,2,,151
2012-10-24,82,76,71,73,70,65,94,79,67,29.96,29.92,29.87,10,10,10,10,2,,0.00,4,,158
2012-10-25,82,78,73,73,72,69,91,84,71,30.04,29.97,29.92,10,10,10,12,3,,0.00,4,,157
2012-10-26,82,76,70,73,71,68,97,83,65,30.11,30.04,29.97,10,9,7,10,4,,0.00,4,,258
2012-10-27,81,72,64,71,68,65,100,79,64,30.12,30.06,29.99,10,10,10,12,2,16,0.00,5,,200
2012-10-28,82,76,70,70,68,64,94,81,58,30.08,30.03,29.99,10,10,6,9,3,16,0.00,5,Rain,64
2012-10-29,84,77,70,69,65,61,93,70,46,30.11,30.05,29.98,10,10,7,12,3,17,0.00,4,Rain,66
2012-10-30,82,75,68,68,66,65,93,75,58,30.14,30.09,30.02,10,10,7,10,3,16,0.00,4,Rain,69
2012-10-31,82,74,66,68,65,61,93,73,47,30.11,30.06,30.00,10,10,10,9,2,16,0.00,2,,73